Time;durP1;ratioP1;P1;durP2;ratioP2;P2;SDS_P1;SDS_P2;PMS_P1;PMS_P2;Temp;Humidity;BMP_temperature;BMP_pressure;BME280_temperature;BME280_humidity;BME280_pressure;Samples;Min_cycle;Max_cycle;Signal;HPM_P1;HPM_P2
2022/07/16 00:03:54;;;;;;;;;;;;;;;21.86;33.57;100600.97;5398927;32;35198;-69
2022/07/16 00:06:56;;;;;;;;;;;;;;;21.39;34.27;100602.22;5397423;32;36002;-68
2022/07/16 00:09:58;;;;;;;;;;;;;;;21.30;34.50;100594.91;5383770;32;35197;-69
2022/07/16 00:13:02;;;;;;;;;;;;;;;21.28;34.49;100591.50;5397516;32;35228;-69
2022/07/16 00:16:04;;;;;;;;;;;;;;;21.20;34.85;100593.94;5380903;32;35304;-75
2022/07/16 00:19:15;;;;;;;;;;;;;;;21.42;34.28;100590.41;5412439;32;46787;-79
2022/07/16 00:22:17;;;;;;;;;;;;;;;21.22;34.38;100583.97;5396507;32;35953;-76
2022/07/16 00:25:19;;;;;;;;;;;;;;;20.66;35.30;100583.97;5396551;32;35975;-68
2022/07/16 00:28:21;;;;;;;;;;;;;;;21.00;34.65;100590.19;5397919;32;35246;-69
2022/07/16 00:31:23;;;;;;;;;;;;;;;21.54;33.81;100595.59;5393825;32;35324;-74
2022/07/16 00:34:25;;;;;;;;;;;;;;;21.44;33.72;100583.09;5408769;32;36083;-71
2022/07/16 00:37:27;;;;;;;;;;;;;;;21.74;33.39;100590.44;5381942;32;36037;-69
2022/07/16 00:40:29;;;;;;;;;;;;;;;20.72;35.29;100592.34;5397217;32;37262;-68
2022/07/16 00:43:33;;;;;;;;;;;;;;;20.65;35.31;100577.78;5384846;32;35389;-68
2022/07/16 00:46:35;;;;;;;;;;;;;;;20.28;36.27;100585.91;5392637;32;34817;-68
2022/07/16 00:49:37;;;;;;;;;;;;;;;20.54;35.92;100597.31;5410302;32;44500;-77
2022/07/16 00:52:39;;;;;;;;;;;;;;;20.68;35.61;100590.91;5394929;32;35408;-76
2022/07/16 00:55:41;;;;;;;;;;;;;;;21.38;34.63;100589.78;5412477;32;35793;-69
2022/07/16 00:58:44;;;;;;;;;;;;;;;21.21;34.86;100588.47;5382873;32;35433;-69
2022/07/16 01:01:46;;;;;;;;;;;;;;;21.65;34.07;100585.87;5385603;32;34890;-77
2022/07/16 01:04:48;;;;;;;;;;;;;;;21.72;33.65;100592.41;5399236;32;36245;-77
2022/07/16 01:07:50;;;;;;;;;;;;;;;20.71;35.83;100596.00;5394860;32;35510;-68
2022/07/16 01:10:52;;;;;;;;;;;;;;;21.10;35.29;100597.34;5412296;32;35968;-68
2022/07/16 01:13:53;;;;;;;;;;;;;;;20.47;36.52;100598.72;5394886;32;36765;-69
2022/07/16 01:16:56;;;;;;;;;;;;;;;20.70;36.16;100591.62;5411163;32;34760;-69
2022/07/16 01:19:58;;;;;;;;;;;;;;;21.15;35.18;100599.66;5382632;32;35353;-75
2022/07/16 01:23:00;;;;;;;;;;;;;;;21.23;35.15;100593.69;5410190;32;36048;-77
2022/07/16 01:26:02;;;;;;;;;;;;;;;20.79;35.88;100584.69;5401921;32;37070;-70
2022/07/16 01:29:04;;;;;;;;;;;;;;;21.59;34.51;100592.56;5398240;32;36130;-74
2022/07/16 01:32:06;;;;;;;;;;;;;;;21.52;34.41;100592.22;5413257;32;42676;-79
2022/07/16 01:35:08;;;;;;;;;;;;;;;21.31;34.75;100601.97;5380821;32;35963;-68
2022/07/16 01:38:10;;;;;;;;;;;;;;;21.13;35.23;100588.25;5397241;32;37240;-76
2022/07/16 01:41:12;;;;;;;;;;;;;;;21.78;34.17;100579.37;5396281;32;35980;-69
2022/07/16 01:44:14;;;;;;;;;;;;;;;22.06;33.72;100585.94;5395976;32;36692;-75
2022/07/16 01:47:16;;;;;;;;;;;;;;;21.36;35.04;100592.59;5403652;32;35174;-68
2022/07/16 01:50:18;;;;;;;;;;;;;;;21.65;34.36;100591.22;5382352;32;35958;-69
2022/07/16 01:53:21;;;;;;;;;;;;;;;21.18;35.29;100599.37;5400384;32;35783;-68
2022/07/16 01:56:23;;;;;;;;;;;;;;;20.71;36.24;100600.47;5383684;32;36055;-77
2022/07/16 01:59:25;;;;;;;;;;;;;;;20.62;36.45;100598.53;5402579;32;36082;-68
2022/07/16 02:02:27;;;;;;;;;;;;;;;20.57;36.70;100606.06;5391823;32;35646;-70
2022/07/16 02:05:29;;;;;;;;;;;;;;;20.34;37.18;100595.28;5407349;32;37226;-78
2022/07/16 02:08:31;;;;;;;;;;;;;;;21.56;35.20;100600.81;5405948;32;34863;-69
2022/07/16 02:11:33;;;;;;;;;;;;;;;21.77;34.59;100601.75;5382327;32;35155;-69
2022/07/16 02:14:35;;;;;;;;;;;;;;;22.01;34.05;100596.16;5415008;32;44687;-70
2022/07/16 02:17:37;;;;;;;;;;;;;;;21.77;34.50;100592.87;5403783;32;36141;-78
2022/07/16 02:20:39;;;;;;;;;;;;;;;21.72;34.40;100587.06;5413653;32;35265;-79
2022/07/16 02:23:41;;;;;;;;;;;;;;;21.61;34.44;100585.25;5395938;32;35515;-75
2022/07/16 02:26:43;;;;;;;;;;;;;;;20.89;36.16;100588.34;5405413;32;34820;-67
2022/07/16 02:29:45;;;;;;;;;;;;;;;21.33;35.59;100595.53;5405743;32;36431;-68
2022/07/16 02:32:47;;;;;;;;;;;;;;;21.35;34.98;100582.87;5395207;32;36267;-76
2022/07/16 02:35:49;;;;;;;;;;;;;;;21.42;35.01;100590.41;5409652;32;35377;-77
2022/07/16 02:38:51;;;;;;;;;;;;;;;20.67;36.01;100586.50;5396947;32;34876;-77
2022/07/16 02:41:53;;;;;;;;;;;;;;;20.38;36.92;100583.41;5412784;32;37079;-78
2022/07/16 02:44:55;;;;;;;;;;;;;;;21.16;35.47;100587.97;5397303;32;35618;-68
2022/07/16 02:47:57;;;;;;;;;;;;;;;20.04;37.51;100597.63;5390381;32;35054;-77
2022/07/16 02:50:59;;;;;;;;;;;;;;;20.42;36.93;100584.03;5406152;32;35365;-77
2022/07/16 02:54:01;;;;;;;;;;;;;;;20.63;36.59;100602.91;5382549;32;35394;-77
2022/07/16 02:57:03;;;;;;;;;;;;;;;20.89;36.04;100601.72;5413013;32;35654;-69
2022/07/16 03:00:06;;;;;;;;;;;;;;;20.79;36.38;100598.06;5360037;32;38520;-76
2022/07/16 03:03:08;;;;;;;;;;;;;;;21.13;35.49;100606.09;5413129;32;45752;-68
2022/07/16 03:06:10;;;;;;;;;;;;;;;20.70;36.35;100609.47;5382405;32;33386;-79
2022/07/16 03:09:11;;;;;;;;;;;;;;;20.68;36.53;100614.94;5404882;32;35050;-67
2022/07/16 03:12:13;;;;;;;;;;;;;;;20.24;37.77;100613.81;5392151;32;36508;-77
2022/07/16 03:15:15;;;;;;;;;;;;;;;19.81;38.43;100610.84;5397030;32;36863;-70
2022/07/16 03:18:17;;;;;;;;;;;;;;;20.65;36.83;100616.97;5409266;32;35367;-79
2022/07/16 03:21:19;;;;;;;;;;;;;;;20.72;36.74;100618.19;5382815;32;35226;-68
2022/07/16 03:24:21;;;;;;;;;;;;;;;20.16;38.11;100621.56;5399603;32;34759;-74
2022/07/16 03:27:23;;;;;;;;;;;;;;;19.86;38.93;100626.50;5397344;32;36025;-75
2022/07/16 03:30:25;;;;;;;;;;;;;;;19.86;39.20;100626.50;5396359;32;35215;-68
2022/07/16 03:33:27;;;;;;;;;;;;;;;19.74;39.33;100629.12;5394455;32;36091;-69
2022/07/16 03:36:29;;;;;;;;;;;;;;;19.93;38.90;100631.28;5390064;32;35700;-77
2022/07/16 03:39:31;;;;;;;;;;;;;;;20.00;38.89;100631.66;5412449;32;34989;-74
2022/07/16 03:42:33;;;;;;;;;;;;;;;20.42;38.03;100632.94;5393877;32;35105;-74
2022/07/16 03:45:35;;;;;;;;;;;;;;;20.01;39.05;100644.88;5412518;32;35368;-67
2022/07/16 03:48:37;;;;;;;;;;;;;;;19.44;40.10;100642.81;5382284;32;44998;-77
2022/07/16 03:51:39;;;;;;;;;;;;;;;19.89;39.39;100645.78;5402296;32;35930;-77
2022/07/16 03:54:41;;;;;;;;;;;;;;;20.07;39.07;100648.91;5406540;32;35692;-70
2022/07/16 03:57:43;;;;;;;;;;;;;;;19.82;39.51;100644.53;5382623;32;36409;-77
2022/07/16 04:00:44;;;;;;;;;;;;;;;20.61;38.20;100650.22;5389209;32;34560;-68
2022/07/16 04:03:46;;;;;;;;;;;;;;;20.53;38.71;100643.66;5395523;32;37485;-77
2022/07/16 04:06:48;;;;;;;;;;;;;;;20.39;38.87;100640.31;5412511;32;36294;-78
2022/07/16 04:09:51;;;;;;;;;;;;;;;21.14;37.56;100645.22;5395053;32;35641;-80
2022/07/16 04:12:53;;;;;;;;;;;;;;;21.08;37.37;100646.53;5389398;32;35136;-74
2022/07/16 04:15:55;;;;;;;;;;;;;;;21.23;37.23;100644.47;5407635;32;35509;-70
2022/07/16 04:18:57;;;;;;;;;;;;;;;21.07;37.60;100640.34;5381375;32;37379;-69
2022/07/16 04:21:58;;;;;;;;;;;;;;;21.72;36.23;100640.56;5412534;32;35467;-68
2022/07/16 04:25:00;;;;;;;;;;;;;;;21.36;36.71;100645.22;5381401;32;35696;-78
2022/07/16 04:28:02;;;;;;;;;;;;;;;21.14;37.59;100642.53;5413191;32;34724;-78
2022/07/16 04:31:04;;;;;;;;;;;;;;;20.91;37.69;100644.34;5395701;32;36219;-76
2022/07/16 04:34:06;;;;;;;;;;;;;;;21.27;36.81;100648.59;5384891;32;44634;-79
2022/07/16 04:37:08;;;;;;;;;;;;;;;21.19;36.88;100643.00;5406047;32;35446;-69
2022/07/16 04:40:11;;;;;;;;;;;;;;;22.26;34.89;100632.47;5395084;32;34645;-69
2022/07/16 04:43:13;;;;;;;;;;;;;;;22.52;34.04;100635.62;5413341;32;35756;-70
2022/07/16 04:46:15;;;;;;;;;;;;;;;22.22;33.73;100632.84;5395650;32;35187;-78
2022/07/16 04:49:17;;;;;;;;;;;;;;;23.66;31.83;100627.44;5397975;32;36083;-69
2022/07/16 04:52:19;;;;;;;;;;;;;;;23.92;31.17;100622.38;5395525;32;35955;-69
2022/07/16 04:55:21;;;;;;;;;;;;;;;24.55;30.46;100624.66;5391195;32;35280;-69
2022/07/16 04:58:23;;;;;;;;;;;;;;;24.64;30.09;100622.94;5401492;32;35294;-78
2022/07/16 05:01:25;;;;;;;;;;;;;;;25.29;29.08;100634.63;5384579;32;36281;-76
2022/07/16 05:04:26;;;;;;;;;;;;;;;25.70;28.56;100616.25;5414833;32;36024;-70
2022/07/16 05:07:29;;;;;;;;;;;;;;;25.80;28.27;100633.22;5397022;32;35150;-78
2022/07/16 05:10:31;;;;;;;;;;;;;;;25.67;28.76;100628.19;5414425;32;35635;-70
2022/07/16 05:13:33;;;;;;;;;;;;;;;27.18;26.47;100625.44;5384017;32;35007;-78
2022/07/16 05:16:34;;;;;;;;;;;;;;;25.19;29.44;100631.16;5387919;32;37736;-76
2022/07/16 05:19:36;;;;;;;;;;;;;;;26.55;27.17;100629.22;5400515;32;44098;-70
2022/07/16 05:22:39;;;;;;;;;;;;;;;25.84;27.70;100635.47;5397212;32;35224;-70
2022/07/16 05:25:41;;;;;;;;;;;;;;;27.16;25.77;100633.66;5414520;32;34958;-78
2022/07/16 05:28:43;;;;;;;;;;;;;;;26.96;26.14;100626.78;5397110;32;37352;-80
2022/07/16 05:31:44;;;;;;;;;;;;;;;28.22;24.40;100616.91;5414262;32;35431;-68
2022/07/16 05:34:46;;;;;;;;;;;;;;;27.82;25.13;100628.50;5395786;32;36238;-77
2022/07/16 05:37:48;;;;;;;;;;;;;;;27.11;26.29;100629.75;5397691;32;35672;-69
2022/07/16 05:40:50;;;;;;;;;;;;;;;27.50;25.80;100630.94;5412913;32;36073;-78
2022/07/16 05:43:52;;;;;;;;;;;;;;;27.13;26.28;100630.44;5397287;32;37047;-70
2022/07/16 05:46:54;;;;;;;;;;;;;;;27.90;25.36;100631.25;5400725;32;35233;-75
2022/07/16 05:49:56;;;;;;;;;;;;;;;26.04;27.32;100613.78;5396197;32;35486;-68
2022/07/16 05:52:59;;;;;;;;;;;;;;;28.12;24.89;100629.75;5415123;32;35671;-80
2022/07/16 05:56:01;;;;;;;;;;;;;;;27.82;25.23;100637.44;5397303;32;35227;-69
2022/07/16 05:59:03;;;;;;;;;;;;;;;28.05;25.07;100629.56;5383788;32;35306;-78
2022/07/16 06:02:05;;;;;;;;;;;;;;;29.69;22.94;100622.84;5393642;32;35253;-69
2022/07/16 06:05:07;;;;;;;;;;;;;;;26.69;25.93;100627.81;5382247;32;43532;-77
2022/07/16 06:08:09;;;;;;;;;;;;;;;27.60;25.50;100621.84;5414786;32;36702;-77
2022/07/16 06:11:11;;;;;;;;;;;;;;;27.75;25.21;100633.72;5396291;32;35977;-69
2022/07/16 06:14:17;;;;;;;;;;;;;;;26.84;26.28;100634.28;5413526;32;35915;-78
2022/07/16 06:17:19;;;;;;;;;;;;;;;28.08;24.78;100629.25;5384912;32;36237;-76
2022/07/16 06:20:22;;;;;;;;;;;;;;;28.17;24.18;100617.41;5394802;32;35123;-79
2022/07/16 06:23:24;;;;;;;;;;;;;;;27.26;25.37;100636.25;5414060;32;35264;-75
2022/07/16 06:26:26;;;;;;;;;;;;;;;27.40;25.18;100646.41;5383200;32;34894;-68
2022/07/16 06:29:28;;;;;;;;;;;;;;;26.85;25.88;100649.47;5412017;32;36175;-76
2022/07/16 06:32:30;;;;;;;;;;;;;;;27.62;24.78;100649.53;5383825;32;35143;-78
2022/07/16 06:35:32;;;;;;;;;;;;;;;28.03;24.41;100654.06;5409206;32;35601;-79
2022/07/16 06:38:34;;;;;;;;;;;;;;;28.84;22.80;100647.78;5397813;32;37996;-78
2022/07/16 06:41:37;;;;;;;;;;;;;;;28.11;24.19;100652.38;5396584;32;46620;-78
2022/07/16 06:44:40;;;;;;;;;;;;;;;30.03;21.77;100649.53;5397872;32;37217;-78
2022/07/16 06:47:42;;;;;;;;;;;;;;;28.84;23.23;100649.66;5396905;32;36411;-70
2022/07/16 06:50:44;;;;;;;;;;;;;;;30.54;20.97;100649.00;5412839;32;35800;-69
2022/07/16 06:53:46;;;;;;;;;;;;;;;29.09;22.64;100650.47;5397498;32;36210;-69
2022/07/16 06:56:48;;;;;;;;;;;;;;;30.74;20.59;100653.75;5412498;32;35230;-79
2022/07/16 06:59:51;;;;;;;;;;;;;;;29.86;21.53;100648.78;5376187;32;36212;-77
2022/07/16 07:02:53;;;;;;;;;;;;;;;29.48;22.08;100630.69;5396970;32;35393;-75
2022/07/16 07:05:55;;;;;;;;;;;;;;;29.46;21.61;100630.88;5412389;32;35367;-69
2022/07/16 07:08:57;;;;;;;;;;;;;;;29.92;21.31;100652.66;5397423;32;35374;-77
2022/07/16 07:11:59;;;;;;;;;;;;;;;29.62;21.41;100649.78;5413795;32;36123;-75
2022/07/16 07:15:02;;;;;;;;;;;;;;;28.94;21.31;100655.78;5395797;32;35910;-79
2022/07/16 07:18:04;;;;;;;;;;;;;;;30.53;19.99;100645.44;5409721;32;35214;-78
2022/07/16 07:21:06;;;;;;;;;;;;;;;29.32;21.82;100647.88;5399443;32;44741;-78
2022/07/16 07:24:07;;;;;;;;;;;;;;;29.41;20.74;100644.94;5395626;32;36142;-78
2022/07/16 07:27:29;;;;;;;;;;;;;;;29.83;20.64;100653.75;5413983;32;36310;-69
2022/07/16 07:30:31;;;;;;;;;;;;;;;30.98;18.91;100646.38;5396595;32;34896;-77
2022/07/16 07:33:33;;;;;;;;;;;;;;;30.47;19.37;100643.47;5411671;32;36525;-70
2022/07/16 07:36:35;;;;;;;;;;;;;;;29.35;21.01;100639.38;5379768;32;34780;-71
2022/07/16 07:39:37;;;;;;;;;;;;;;;30.63;19.87;100642.47;5398900;32;35293;-77
2022/07/16 07:42:39;;;;;;;;;;;;;;;29.85;20.66;100646.28;5410151;32;35092;-78
2022/07/16 07:45:41;;;;;;;;;;;;;;;29.12;21.51;100650.16;5382333;32;35232;-77
2022/07/16 07:48:43;;;;;;;;;;;;;;;29.59;20.92;100652.00;5410418;32;35903;-74
2022/07/16 07:51:45;;;;;;;;;;;;;;;30.61;20.30;100644.53;5396486;32;35999;-69
2022/07/16 07:54:47;;;;;;;;;;;;;;;31.85;18.85;100645.66;5397749;32;35428;-79
2022/07/16 07:57:49;;;;;;;;;;;;;;;32.92;17.62;100632.00;5397825;32;35409;-69
2022/07/16 08:00:54;;;;;;;;;;;;;;;31.52;19.05;100637.94;5375651;32;34745;-75
2022/07/16 08:04:16;;;;;;;;;;;;;;;30.72;19.98;100633.25;5412270;32;35109;-69
2022/07/16 08:07:18;;;;;;;;;;;;;;;33.45;16.80;100611.34;5396713;32;35177;-79
2022/07/16 08:10:20;;;;;;;;;;;;;;;30.70;20.00;100621.75;5411331;32;33642;-69
2022/07/16 08:13:22;;;;;;;;;;;;;;;31.81;18.55;100628.88;5383126;32;34599;-69
2022/07/16 08:16:24;;;;;;;;;;;;;;;32.14;18.28;100628.38;5409701;32;34515;-69
2022/07/16 08:19:26;;;;;;;;;;;;;;;30.93;19.54;100630.66;5385683;32;37273;-70
2022/07/16 08:22:28;;;;;;;;;;;;;;;30.78;19.69;100621.66;5396380;32;35413;-70
2022/07/16 08:25:45;;;;;;;;;;;;;;;32.92;17.42;100611.06;5411863;32;35524;-75
2022/07/16 08:28:47;;;;;;;;;;;;;;;34.39;15.94;100614.06;5380029;32;37082;-78
2022/07/16 08:31:48;;;;;;;;;;;;;;;33.30;17.16;100600.59;5401238;32;35608;-78
2022/07/16 08:34:51;;;;;;;;;;;;;;;31.20;19.05;100621.00;5393273;32;35141;-70
2022/07/16 08:37:52;;;;;;;;;;;;;;;31.42;18.58;100616.50;5390808;32;35856;-75
2022/07/16 08:40:55;;;;;;;;;;;;;;;32.55;17.39;100601.38;5395311;32;35756;-74
2022/07/16 08:43:58;;;;;;;;;;;;;;;31.88;18.11;100612.66;5397512;32;36790;-77
2022/07/16 08:46:59;;;;;;;;;;;;;;;32.67;17.53;100601.66;5397971;32;36338;-69
2022/07/16 08:50:02;;;;;;;;;;;;;;;35.50;15.02;100600.41;5381652;32;35855;-70
2022/07/16 08:53:04;;;;;;;;;;;;;;;34.59;15.19;100600.44;5416611;32;35622;-76
2022/07/16 08:56:06;;;;;;;;;;;;;;;31.50;18.52;100600.13;5397715;32;44492;-77
2022/07/16 08:59:08;;;;;;;;;;;;;;;35.17;14.92;100602.44;5384610;32;35293;-69
2022/07/16 09:02:11;;;;;;;;;;;;;;;33.34;16.51;100610.00;5406853;32;34987;-69
2022/07/16 09:05:13;;;;;;;;;;;;;;;32.86;16.85;100601.81;5383400;32;35391;-78
2022/07/16 09:08:18;;;;;;;;;;;;;;;34.48;15.54;100590.16;5424761;32;35215;-70
2022/07/16 09:11:22;;;;;;;;;;;;;;;32.84;16.55;100597.56;5385382;32;35178;-71
2022/07/16 09:14:23;;;;;;;;;;;;;;;34.10;15.89;100579.00;5414203;32;34976;-69
2022/07/16 09:17:26;;;;;;;;;;;;;;;34.69;14.98;100580.88;5400219;32;35301;-71
2022/07/16 09:20:31;;;;;;;;;;;;;;;33.65;16.10;100579.56;5396674;32;37461;-76
2022/07/16 09:23:36;;;;;;;;;;;;;;;33.68;16.31;100590.06;5414633;32;35169;-79
2022/07/16 09:26:41;;;;;;;;;;;;;;;36.33;13.88;100577.56;5387292;32;45198;-74
2022/07/16 09:29:43;;;;;;;;;;;;;;;35.93;14.47;100574.28;5411798;32;34771;-78
2022/07/16 09:32:45;;;;;;;;;;;;;;;33.74;15.75;100582.91;5397639;32;34895;-71
2022/07/16 09:35:48;;;;;;;;;;;;;;;31.89;17.95;100581.75;5409278;32;35297;-80
2022/07/16 09:38:51;;;;;;;;;;;;;;;34.87;15.15;100567.41;5386281;32;35596;-77
2022/07/16 09:41:54;;;;;;;;;;;;;;;33.00;16.69;100569.22;5398059;32;35672;-77
2022/07/16 09:44:56;;;;;;;;;;;;;;;31.19;18.76;100581.31;5398825;32;35251;-70
2022/07/16 09:47:58;;;;;;;;;;;;;;;31.38;18.75;100571.75;5392642;32;37721;-77
2022/07/16 09:51:14;;;;;;;;;;;;;;;31.35;18.73;100580.28;5414587;32;35331;-69
2022/07/16 09:54:32;;;;;;;;;;;;;;;30.61;19.32;100577.56;5397286;32;35068;-78
2022/07/16 09:57:34;;;;;;;;;;;;;;;29.31;20.76;100573.09;5396654;32;35560;-68
2022/07/16 10:00:36;;;;;;;;;;;;;;;29.53;20.76;100576.91;5396225;32;44828;-71
2022/07/16 10:03:38;;;;;;;;;;;;;;;30.16;20.16;100582.06;5396724;32;35641;-70
2022/07/16 10:06:40;;;;;;;;;;;;;;;30.15;20.05;100572.25;5412972;32;35149;-76
2022/07/16 10:09:42;;;;;;;;;;;;;;;29.85;20.47;100573.13;5395713;32;35327;-71
2022/07/16 10:12:46;;;;;;;;;;;;;;;31.92;18.12;100563.16;5412948;32;37440;-69
2022/07/16 10:15:48;;;;;;;;;;;;;;;32.40;17.78;100557.97;5384885;32;36102;-71
2022/07/16 10:18:50;;;;;;;;;;;;;;;33.81;16.58;100551.03;5390270;32;36424;-78
2022/07/16 10:22:13;;;;;;;;;;;;;;;34.11;16.16;100556.16;5400960;32;36192;-71
2022/07/16 10:25:16;;;;;;;;;;;;;;;33.96;16.20;100558.25;5383712;32;47415;-71
2022/07/16 10:28:38;;;;;;;;;;;;;;;36.94;13.38;100543.91;5398645;32;35339;-80
2022/07/16 10:35:14;;;;;;;;;;;;;;;34.80;14.97;100541.19;5393110;32;45924;-78
2022/07/16 10:38:17;;;;;;;;;;;;;;;31.68;17.98;100537.19;5400029;32;34919;-66
2022/07/16 10:41:23;;;;;;;;;;;;;;;33.36;16.55;100523.50;5396641;32;35526;-75
2022/07/16 10:44:46;;;;;;;;;;;;;;;35.44;14.95;100529.41;5397239;32;35266;-80
2022/07/16 10:47:49;;;;;;;;;;;;;;;33.84;16.10;100530.72;5396075;32;35887;-71
2022/07/16 10:51:10;;;;;;;;;;;;;;;35.48;14.71;100525.97;5395822;32;35769;-79
2022/07/16 10:54:15;;;;;;;;;;;;;;;34.12;15.81;100514.19;5412463;32;47481;-70
2022/07/16 10:57:17;;;;;;;;;;;;;;;35.52;14.76;100521.75;5396955;32;36256;-69
2022/07/16 11:00:19;;;;;;;;;;;;;;;35.19;14.74;100518.34;5375331;32;34873;-68
2022/07/16 11:03:23;;;;;;;;;;;;;;;34.17;15.79;100511.66;5395929;32;35322;-78
2022/07/16 11:06:25;;;;;;;;;;;;;;;35.74;14.54;100513.19;5381721;32;35076;-70
2022/07/16 11:09:29;;;;;;;;;;;;;;;33.33;16.22;100514.87;5398664;32;34339;-75
2022/07/16 11:12:31;;;;;;;;;;;;;;;33.89;16.19;100498.25;5397254;32;35450;-76
2022/07/16 11:15:33;;;;;;;;;;;;;;;34.17;15.99;100501.59;5412885;32;35421;-70
2022/07/16 11:18:36;;;;;;;;;;;;;;;34.24;15.92;100498.84;5403958;32;35849;-77
2022/07/16 11:21:38;;;;;;;;;;;;;;;36.01;14.40;100497.47;5412466;32;45793;-77
2022/07/16 11:24:44;;;;;;;;;;;;;;;34.62;15.83;100500.91;5382865;32;34779;-78
2022/07/16 11:27:46;;;;;;;;;;;;;;;33.14;17.20;100497.44;5383808;32;34707;-77
2022/07/16 11:31:01;;;;;;;;;;;;;;;33.50;17.03;100493.59;5414243;32;35442;-71
2022/07/16 11:34:22;;;;;;;;;;;;;;;35.73;15.33;100486.91;5398560;32;35284;-80
2022/07/16 11:37:24;;;;;;;;;;;;;;;37.83;13.84;100487.44;5396754;32;35529;-79
2022/07/16 11:40:36;;;;;;;;;;;;;;;36.46;14.50;100489.88;5396642;32;35662;-78
2022/07/16 11:43:39;;;;;;;;;;;;;;;38.37;12.77;100487.34;5380769;32;44705;-72
2022/07/16 11:46:44;;;;;;;;;;;;;;;37.28;14.02;100486.75;5400238;32;35308;-71
2022/07/16 11:49:46;;;;;;;;;;;;;;;37.40;13.91;100496.72;5395583;32;35422;-78
2022/07/16 11:52:49;;;;;;;;;;;;;;;35.44;15.62;100502.91;5400088;32;37080;-70
2022/07/16 11:55:51;;;;;;;;;;;;;;;37.11;14.03;100492.06;5387233;32;36102;-71
2022/07/16 11:58:58;;;;;;;;;;;;;;;37.17;14.12;100484.81;5391446;32;35169;-80
2022/07/16 12:02:08;;;;;;;;;;;;;;;35.50;15.75;100493.81;5392351;32;36166;-76
2022/07/16 12:05:10;;;;;;;;;;;;;;;36.62;14.71;100485.69;5396172;32;43810;-80
2022/07/16 12:08:12;;;;;;;;;;;;;;;35.88;15.44;100492.91;5410865;32;36135;-70
2022/07/16 12:11:34;;;;;;;;;;;;;;;35.21;16.01;100494.37;5395103;32;35185;-70
2022/07/16 12:14:46;;;;;;;;;;;;;;;36.00;15.29;100496.62;5397516;32;44524;-69
2022/07/16 12:18:11;;;;;;;;;;;;;;;36.46;14.85;100489.06;5405282;32;47371;-77
2022/07/16 12:21:23;;;;;;;;;;;;;;;34.66;16.53;100483.91;5382354;32;35115;-70
2022/07/16 12:24:28;;;;;;;;;;;;;;;34.03;17.31;100471.84;5372006;32;851875;-78
2022/07/16 12:27:43;;;;;;;;;;;;;;;32.16;19.25;100491.22;5395769;32;35397;-71
2022/07/16 12:31:01;;;;;;;;;;;;;;;32.37;19.08;100486.78;5408072;32;44127;-78
2022/07/16 12:34:04;;;;;;;;;;;;;;;31.50;20.11;100485.19;5389478;32;36320;-70
2022/07/16 12:37:15;;;;;;;;;;;;;;;32.49;19.07;100477.87;5378553;32;46948;-76
2022/07/16 12:40:17;;;;;;;;;;;;;;;32.37;19.24;100482.19;5397539;32;36134;-77
2022/07/16 12:43:19;;;;;;;;;;;;;;;31.59;19.99;100472.31;5394813;32;35948;-77
2022/07/16 12:46:25;;;;;;;;;;;;;;;31.75;19.73;100472.03;5398884;32;35225;-79
2022/07/16 12:49:28;;;;;;;;;;;;;;;31.29;20.12;100467.00;5393164;32;35931;-71
2022/07/16 12:52:30;;;;;;;;;;;;;;;31.22;20.35;100466.91;5381575;32;35467;-69
2022/07/16 12:58:53;;;;;;;;;;;;;;;31.69;20.03;100468.25;5377844;32;35313;-75
2022/07/16 13:01:56;;;;;;;;;;;;;;;31.15;19.94;100444.28;5404327;32;35737;-71
2022/07/16 13:04:58;;;;;;;;;;;;;;;31.26;19.54;100445.69;5380554;32;35127;-75
2022/07/16 13:08:00;;;;;;;;;;;;;;;32.12;18.14;100457.31;5403795;32;34723;-77
2022/07/16 13:11:03;;;;;;;;;;;;;;;32.19;18.28;100449.19;5390436;32;34996;-70
2022/07/16 13:14:05;;;;;;;;;;;;;;;31.58;19.18;100449.75;5377212;32;35464;-70
2022/07/16 13:17:07;;;;;;;;;;;;;;;31.26;18.66;100465.53;5415458;32;44910;-77
2022/07/16 13:20:12;;;;;;;;;;;;;;;31.52;18.16;100461.38;5383187;32;35876;-71
2022/07/16 13:23:13;;;;;;;;;;;;;;;31.91;17.86;100452.78;5413461;32;35876;-69
2022/07/16 13:26:16;;;;;;;;;;;;;;;31.06;18.88;100460.87;5397680;32;35554;-69
2022/07/16 13:29:18;;;;;;;;;;;;;;;31.70;18.54;100440.03;5402830;32;34990;-68
2022/07/16 13:32:20;;;;;;;;;;;;;;;32.61;18.50;100457.22;5407874;32;36141;-70
2022/07/16 13:35:22;;;;;;;;;;;;;;;31.54;19.65;100448.44;5374075;32;36933;-76
2022/07/16 13:38:24;;;;;;;;;;;;;;;31.70;19.80;100467.19;5411844;32;35448;-79
2022/07/16 13:41:26;;;;;;;;;;;;;;;32.14;19.25;100462.53;5397195;32;35287;-70
2022/07/16 13:44:28;;;;;;;;;;;;;;;31.02;20.64;100471.25;5412711;32;35388;-70
2022/07/16 13:47:30;;;;;;;;;;;;;;;31.29;20.06;100461.56;5391068;32;35019;-70
2022/07/16 13:50:33;;;;;;;;;;;;;;;30.92;19.97;100465.31;5401067;32;35070;-78
2022/07/16 13:53:35;;;;;;;;;;;;;;;30.70;20.12;100464.41;5407813;32;36287;-70
2022/07/16 13:56:37;;;;;;;;;;;;;;;30.83;19.82;100461.84;5395515;32;45342;-69
2022/07/16 13:59:39;;;;;;;;;;;;;;;30.11;20.92;100461.66;5391348;32;36168;-70
2022/07/16 14:02:40;;;;;;;;;;;;;;;30.45;20.62;100463.81;5394227;32;35401;-72
2022/07/16 14:05:43;;;;;;;;;;;;;;;29.84;21.06;100465.78;5414298;32;34752;-70
2022/07/16 14:08:45;;;;;;;;;;;;;;;29.85;20.81;100459.34;5380224;32;34668;-70
2022/07/16 14:11:48;;;;;;;;;;;;;;;29.78;20.89;100455.69;5402168;32;36614;-69
2022/07/16 14:14:50;;;;;;;;;;;;;;;30.26;20.40;100458.94;5386692;32;34729;-78
2022/07/16 14:17:56;;;;;;;;;;;;;;;29.84;20.77;100455.78;5396326;32;35657;-70
2022/07/16 14:20:58;;;;;;;;;;;;;;;30.57;19.74;100461.47;5400195;32;35222;-69
2022/07/16 14:24:00;;;;;;;;;;;;;;;30.05;20.13;100457.78;5395291;32;35233;-70
2022/07/16 14:27:02;;;;;;;;;;;;;;;30.48;19.70;100460.75;5399394;32;35475;-69
2022/07/16 14:30:04;;;;;;;;;;;;;;;29.98;20.50;100458.72;5395263;32;36827;-76
2022/07/16 14:33:07;;;;;;;;;;;;;;;30.05;20.19;100456.94;5397488;32;43382;-78
2022/07/16 14:36:09;;;;;;;;;;;;;;;30.52;19.69;100443.06;5410497;32;35866;-78
2022/07/16 14:39:11;;;;;;;;;;;;;;;30.37;19.93;100432.22;5395576;32;36459;-79
2022/07/16 14:42:13;;;;;;;;;;;;;;;30.70;19.58;100440.81;5414427;32;35480;-69
2022/07/16 14:45:18;;;;;;;;;;;;;;;30.78;19.38;100431.72;5384285;32;37047;-76
2022/07/16 14:48:20;;;;;;;;;;;;;;;30.16;20.17;100437.56;5411417;32;36147;-78
2022/07/16 14:51:22;;;;;;;;;;;;;;;29.75;20.93;100427.06;5397538;32;35471;-75
2022/07/16 14:54:24;;;;;;;;;;;;;;;30.22;20.51;100449.53;5395731;32;35290;-77
2022/07/16 14:57:26;;;;;;;;;;;;;;;30.48;20.17;100434.47;5412840;32;35439;-75
2022/07/16 15:00:29;;;;;;;;;;;;;;;30.71;19.96;100437.06;5370833;32;35634;-70
2022/07/16 15:03:31;;;;;;;;;;;;;;;31.14;19.31;100417.31;5387979;32;35153;-79
2022/07/16 15:06:33;;;;;;;;;;;;;;;30.80;19.64;100447.84;5384159;32;35888;-76
2022/07/16 15:09:35;;;;;;;;;;;;;;;30.11;20.56;100434.56;5414880;32;43316;-78
2022/07/16 15:12:37;;;;;;;;;;;;;;;29.94;20.48;100433.84;5397200;32;35590;-70
2022/07/16 15:15:39;;;;;;;;;;;;;;;29.52;20.94;100429.84;5396997;32;36013;-79
2022/07/16 15:18:41;;;;;;;;;;;;;;;30.18;20.50;100432.78;5410582;32;36015;-70
2022/07/16 15:21:43;;;;;;;;;;;;;;;28.99;21.61;100420.72;5396083;32;35343;-77
2022/07/16 15:24:45;;;;;;;;;;;;;;;29.68;20.69;100428.84;5414073;32;35162;-69
2022/07/16 15:27:48;;;;;;;;;;;;;;;29.66;21.05;100422.78;5397250;32;38249;-69
2022/07/16 15:30:50;;;;;;;;;;;;;;;29.74;21.61;100438.09;5412911;32;35653;-70
2022/07/16 15:33:52;;;;;;;;;;;;;;;30.45;20.85;100431.28;5381418;32;37316;-77
2022/07/16 15:36:54;;;;;;;;;;;;;;;29.76;21.62;100436.91;5378864;32;35595;-78
2022/07/16 15:39:56;;;;;;;;;;;;;;;29.36;21.91;100430.75;5400733;32;36324;-78
2022/07/16 15:42:58;;;;;;;;;;;;;;;30.33;20.86;100430.06;5396227;32;35913;-70
2022/07/16 15:46:00;;;;;;;;;;;;;;;30.11;21.27;100423.72;5414090;32;34642;-71
2022/07/16 15:49:02;;;;;;;;;;;;;;;30.79;20.68;100428.00;5382981;32;35028;-69